createdAt,value
2022-09-29T00:01:27.679Z,98921.28
2022-09-29T00:03:56.226Z,98914.38
2022-09-29T00:06:25.152Z,98914.72
2022-09-29T00:08:53.733Z,98909.03
2022-09-29T00:11:22.429Z,98896.63
2022-09-29T00:13:51.794Z,98895.13
2022-09-29T00:16:21.822Z,98904.25
2022-09-29T00:18:50.370Z,98905.94
2022-09-29T00:21:20.634Z,98921.88
2022-09-29T00:23:51.694Z,98909.50
2022-09-29T00:26:23.953Z,98908.16
2022-09-29T00:28:56.866Z,98909.59
2022-09-29T00:31:30.338Z,98913.28
2022-09-29T00:33:59.858Z,98910.91
2022-09-29T00:36:30.220Z,98910.91
2022-09-29T00:39:00.551Z,98902.84
2022-09-29T00:41:33.902Z,98904.25
2022-09-29T00:44:04.794Z,98905.06
2022-09-29T00:46:46.383Z,98911.50
2022-09-29T00:49:24.910Z,98908.28
2022-09-29T00:52:01.212Z,98904.03
2022-09-29T00:54:38.293Z,98923.88
2022-09-29T00:57:09.708Z,98920.44
2022-09-29T00:59:46.522Z,98926.59
2022-09-29T01:02:20.361Z,98932.91
2022-09-29T01:04:52.902Z,98923.16
2022-09-29T01:07:23.561Z,98933.97
2022-09-29T01:09:55.132Z,98933.38
2022-09-29T01:12:25.109Z,98922.34
2022-09-29T01:14:56.268Z,98931.25
2022-09-29T01:17:26.947Z,98933.75
2022-09-29T01:20:13.101Z,98934.84
2022-09-29T01:23:34.259Z,98944.94
2022-09-29T01:26:48.899Z,98945.53
2022-09-29T01:29:57.474Z,98953.66
2022-09-29T01:32:44.141Z,98950.28
2022-09-29T01:35:22.909Z,98946.16
2022-09-29T01:38:09.367Z,98949.09
2022-09-29T01:40:51.626Z,98951.97
2022-09-29T01:43:26.696Z,98954.47
2022-09-29T01:46:05.944Z,98953.53
2022-09-29T01:48:41.926Z,98956.03
2022-09-29T01:51:18.349Z,98951.25
2022-09-29T01:53:51.458Z,98956.84
2022-09-29T01:56:27.752Z,98962.53
2022-09-29T01:59:03.645Z,98969.69
2022-09-29T02:01:40.496Z,98966.72
2022-09-29T02:04:16.418Z,98965.75
2022-09-29T02:06:53.083Z,98966.59
2022-09-29T02:09:28.886Z,98968.38
2022-09-29T02:12:01.950Z,98969.47
2022-09-29T02:14:38.624Z,98965.41
2022-09-29T02:17:13.512Z,98961.13
2022-09-29T02:19:45.112Z,98967.31
2022-09-29T02:22:14.954Z,98983.22
2022-09-29T02:24:44.096Z,98981.00
2022-09-29T02:27:14.415Z,98983.47
2022-09-29T02:29:44.153Z,98986.06
2022-09-29T02:32:14.260Z,98984.44
2022-09-29T02:34:49.830Z,98974.56
2022-09-29T02:37:41.682Z,98984.19
2022-09-29T02:40:29.659Z,98992.41
2022-09-29T02:43:37.011Z,98996.72
2022-09-29T02:46:24.351Z,98991.59
2022-09-29T02:49:26.306Z,99001.69
2022-09-29T02:52:02.811Z,99007.53
2022-09-29T02:54:53.224Z,99017.03
2022-09-29T02:57:29.858Z,99015.63
2022-09-29T03:00:09.826Z,99002.88
2022-09-29T03:02:40.009Z,98996.81
2022-09-29T03:05:12.660Z,98999.59
2022-09-29T03:07:43.471Z,99007.66
2022-09-29T03:10:14.830Z,99017.38
2022-09-29T03:12:43.685Z,99018.41
2022-09-29T03:15:13.266Z,99025.78
2022-09-29T03:17:42.359Z,99028.66
2022-09-29T03:20:11.547Z,99029.00
2022-09-29T03:22:40.284Z,99039.44
2022-09-29T03:25:10.608Z,99035.00
2022-09-29T03:27:40.064Z,99042.94
2022-09-29T03:30:12.960Z,99045.97
2022-09-29T03:32:41.518Z,99040.94
2022-09-29T03:35:11.692Z,99029.16
2022-09-29T03:37:40.249Z,99033.34
2022-09-29T03:40:11.910Z,99041.25
2022-09-29T03:42:40.640Z,99051.31
2022-09-29T03:45:10.191Z,99053.69
2022-09-29T03:47:38.738Z,99053.94
2022-09-29T03:50:08.817Z,99057.34
2022-09-29T03:52:37.572Z,99052.94
2022-09-29T03:55:07.176Z,99052.50
2022-09-29T03:57:37.623Z,99052.25
2022-09-29T04:00:07.252Z,99054.13
2022-09-29T04:02:36.952Z,99040.34
2022-09-29T04:05:06.676Z,99039.75
2022-09-29T04:07:35.395Z,99037.72
2022-09-29T04:10:04.556Z,99039.75
2022-09-29T04:12:33.101Z,99040.81
2022-09-29T04:15:03.007Z,99038.91
2022-09-29T04:17:31.917Z,99041.03
2022-09-29T04:20:00.724Z,99047.94
2022-09-29T04:22:29.271Z,99046.50
2022-09-29T04:24:58.394Z,99044.09
2022-09-29T04:27:27.033Z,99054.94
2022-09-29T04:29:55.535Z,99059.31
2022-09-29T04:32:26.027Z,99052.44
2022-09-29T04:34:54.827Z,99060.44
2022-09-29T04:37:23.483Z,99054.56
2022-09-29T04:39:53.245Z,99063.50
2022-09-29T04:42:22.555Z,99062.56
2022-09-29T04:44:51.105Z,99063.84
2022-09-29T04:47:19.909Z,99070.31
2022-09-29T04:49:49.747Z,99076.75
2022-09-29T04:52:18.323Z,99070.56
2022-09-29T04:54:47.080Z,99071.13
2022-09-29T04:57:15.611Z,99064.59
2022-09-29T04:59:44.255Z,99064.34
2022-09-29T05:02:13.012Z,99065.66
2022-09-29T05:04:41.574Z,99069.34
2022-09-29T05:07:11.477Z,99067.47
2022-09-29T05:09:40.207Z,99064.63
2022-09-29T05:12:08.803Z,99073.88
2022-09-29T05:14:37.318Z,99073.28
2022-09-29T05:17:06.178Z,99082.94
2022-09-29T05:19:34.911Z,99087.94
2022-09-29T05:22:03.893Z,99095.13
2022-09-29T05:24:33.994Z,99092.44
2022-09-29T05:27:02.534Z,99096.00
2022-09-29T05:29:31.122Z,99108.16
2022-09-29T05:32:00.003Z,99105.31
2022-09-29T05:34:28.582Z,99105.25
2022-09-29T05:36:57.123Z,99109.53
2022-09-29T05:39:26.045Z,99113.53
2022-09-29T05:41:59.529Z,99123.31
2022-09-29T05:44:28.667Z,99120.59
2022-09-29T05:46:57.232Z,99121.28
2022-09-29T05:49:25.782Z,99122.25
2022-09-29T05:51:54.658Z,99127.47
2022-09-29T05:54:24.070Z,99128.34
2022-09-29T05:56:52.571Z,99130.81
2022-09-29T05:59:22.890Z,99129.31
2022-09-29T06:01:51.660Z,99135.53
2022-09-29T06:04:20.299Z,99129.41
2022-09-29T06:06:49.147Z,99132.16
2022-09-29T06:09:18.366Z,99132.25
2022-09-29T06:11:46.942Z,99140.59
2022-09-29T06:14:16.017Z,99145.22
2022-09-29T06:16:46.038Z,99153.75
2022-09-29T06:19:14.837Z,99155.75
2022-09-29T06:21:43.597Z,99164.44
2022-09-29T06:24:13.022Z,99160.34
2022-09-29T06:26:41.710Z,99156.09
2022-09-29T06:29:10.726Z,99163.00
2022-09-29T06:31:39.898Z,99164.09
2022-09-29T06:34:11.350Z,99166.00
2022-09-29T06:37:02.498Z,99168.75
2022-09-29T06:39:31.891Z,99166.63
2022-09-29T06:42:01.172Z,99171.06
2022-09-29T06:44:30.730Z,99168.44
2022-09-29T06:47:00.992Z,99170.50
2022-09-29T06:49:31.294Z,99176.50
2022-09-29T06:52:00.865Z,99180.19
2022-09-29T06:54:31.042Z,99181.03
2022-09-29T06:57:00.959Z,99187.72
2022-09-29T06:59:29.522Z,99190.34
2022-09-29T07:01:58.972Z,99186.19
2022-09-29T07:04:27.708Z,99177.66
2022-09-29T07:06:57.757Z,99198.97
2022-09-29T07:09:26.638Z,99205.59
2022-09-29T07:11:55.206Z,99196.13
2022-09-29T07:18:56.059Z,99215.81
2022-09-29T07:21:24.582Z,99209.63
2022-09-29T07:23:57.623Z,99212.22
2022-09-29T07:26:29.348Z,99220.88
2022-09-29T07:28:58.334Z,99226.44
2022-09-29T07:31:26.949Z,99219.63
2022-09-29T07:33:57.584Z,99223.44
2022-09-29T07:36:26.137Z,99225.50
2022-09-29T07:43:28.584Z,99240.63
2022-09-29T07:45:57.185Z,99235.44
2022-09-29T07:48:30.559Z,99238.94
2022-09-29T07:51:05.554Z,99247.25
2022-09-29T07:53:36.332Z,99250.13
2022-09-29T07:56:07.627Z,99257.53
2022-09-29T07:58:39.329Z,99251.09
2022-09-29T08:01:12.745Z,99259.66
2022-09-29T08:03:43.411Z,99260.63
2022-09-29T08:06:12.946Z,99259.72
2022-09-29T08:08:51.228Z,99262.94
2022-09-29T08:11:30.971Z,99268.69
2022-09-29T08:14:03.259Z,99257.94
2022-09-29T08:16:32.831Z,99265.16
2022-09-29T08:19:02.532Z,99272.28
2022-09-29T08:21:31.992Z,99275.63
2022-09-29T08:24:02.459Z,99275.69
2022-09-29T08:26:42.709Z,99274.66
2022-09-29T08:29:17.065Z,99272.00
2022-09-29T08:31:47.545Z,99274.91
2022-09-29T08:34:17.659Z,99259.44
2022-09-29T08:41:51.013Z,99275.66
2022-09-29T08:44:38.301Z,99282.59
2022-09-29T08:47:21.803Z,99284.28
2022-09-29T08:49:56.780Z,99278.50
2022-09-29T08:52:38.327Z,99290.53
2022-09-29T08:55:29.151Z,99290.75
2022-09-29T08:58:02.195Z,99305.13
2022-09-29T09:00:42.254Z,99284.63
2022-09-29T09:03:39.614Z,99305.16
2022-09-29T09:06:26.385Z,99304.72
2022-09-29T09:09:23.183Z,99302.97
2022-09-29T09:12:34.826Z,99306.25
2022-09-29T09:15:27.674Z,99313.19
2022-09-29T09:18:25.904Z,99308.34
2022-09-29T09:21:05.587Z,99304.59
2022-09-29T09:28:15.997Z,99313.47
2022-09-29T09:30:52.766Z,99322.88
2022-09-29T09:33:32.627Z,99320.56
2022-09-29T09:36:09.186Z,99323.72
2022-09-29T09:38:54.895Z,99328.31
2022-09-29T09:46:02.187Z,99323.94
2022-09-29T09:48:39.896Z,99329.38
2022-09-29T09:51:34.510Z,99333.25
2022-09-29T09:54:12.971Z,99342.59
2022-09-29T09:57:14.459Z,99342.75
2022-09-29T10:00:00.446Z,99351.81
2022-09-29T10:02:32.841Z,99357.38
2022-09-29T10:05:07.369Z,99356.31
2022-09-29T10:07:38.437Z,99355.63
2022-09-29T10:10:17.889Z,99360.06
2022-09-29T10:12:47.309Z,99366.84
2022-09-29T10:15:24.578Z,99373.00
2022-09-29T10:18:07.633Z,99371.03
2022-09-29T10:25:19.042Z,99381.28
2022-09-29T10:27:54.015Z,99391.16
2022-09-29T10:30:32.599Z,99386.88
2022-09-29T10:33:09.015Z,99383.44
2022-09-29T10:35:44.749Z,99389.50
2022-09-29T10:38:25.380Z,99395.97
2022-09-29T10:41:02.258Z,99394.38
2022-09-29T10:43:38.015Z,99394.38
2022-09-29T10:46:38.105Z,99392.69
2022-09-29T10:49:15.999Z,99400.97
2022-09-29T10:51:56.085Z,99400.34
2022-09-29T10:54:27.397Z,99403.28
2022-09-29T10:56:59.617Z,99401.63
2022-09-29T10:59:29.548Z,99401.66
2022-09-29T11:02:03.162Z,99409.22
2022-09-29T11:04:37.161Z,99410.50
2022-09-29T11:07:13.508Z,99403.34
2022-09-29T11:09:44.560Z,99404.03
2022-09-29T11:12:33.555Z,99411.53
2022-09-29T11:15:04.229Z,99405.31
2022-09-29T11:17:39.638Z,99417.50
2022-09-29T11:20:16.656Z,99420.28
2022-09-29T11:23:20.249Z,99417.22
2022-09-29T11:26:10.410Z,99420.16
2022-09-29T11:29:15.085Z,99416.97
2022-09-29T11:32:05.843Z,99427.38
2022-09-29T11:34:56.877Z,99416.28
2022-09-29T11:37:43.972Z,99414.75
2022-09-29T11:40:20.070Z,99411.41
2022-09-29T11:43:11.085Z,99423.34
2022-09-29T11:45:57.016Z,99421.25
2022-09-29T11:49:09.691Z,99425.28
2022-09-29T11:52:02.982Z,99420.16
2022-09-29T11:55:02.330Z,99421.81
2022-09-29T11:57:52.143Z,99418.88
2022-09-29T12:00:23.646Z,99417.81
2022-09-29T12:03:28.905Z,99414.41
2022-09-29T12:07:36.895Z,99413.63
2022-09-29T12:10:34.084Z,99421.97
2022-09-29T12:13:19.661Z,99423.66
2022-09-29T12:15:57.655Z,99405.75
2022-09-29T12:18:39.241Z,99435.63
2022-09-29T12:21:15.545Z,99432.09
2022-09-29T12:23:49.327Z,99440.97
2022-09-29T12:26:23.117Z,99439.00
2022-09-29T12:28:59.887Z,99441.94
2022-09-29T12:31:35.535Z,99445.53
2022-09-29T12:34:14.558Z,99445.53
2022-09-29T12:36:53.687Z,99455.94
2022-09-29T12:39:45.031Z,99449.09
2022-09-29T12:42:34.189Z,99456.38
2022-09-29T12:45:11.256Z,99459.91
2022-09-29T12:47:58.163Z,99455.03
2022-09-29T12:50:34.463Z,99451.38
2022-09-29T12:53:16.281Z,99452.56
2022-09-29T12:55:53.938Z,99448.63
2022-09-29T12:58:32.948Z,99449.69
2022-09-29T13:01:23.084Z,99456.06
2022-09-29T13:08:58.893Z,99451.00
2022-09-29T13:12:00.456Z,99458.97
2022-09-29T13:15:09.356Z,99470.06
2022-09-29T13:18:01.659Z,99457.78
2022-09-29T13:21:19.217Z,99462.09
2022-09-29T13:24:16.414Z,99463.63
2022-09-29T13:27:26.400Z,99456.09
2022-09-29T13:30:03.663Z,99465.78
2022-09-29T13:32:36.102Z,99466.41
2022-09-29T13:35:12.713Z,99461.88
2022-09-29T13:37:49.508Z,99471.25
2022-09-29T13:40:27.314Z,99459.84
2022-09-29T13:42:57.959Z,99466.91
2022-09-29T13:45:47.891Z,99463.69
2022-09-29T13:48:49.896Z,99468.19
2022-09-29T13:51:45.831Z,99483.31
2022-09-29T13:54:33.957Z,99475.72
2022-09-29T13:57:26.293Z,99491.78
2022-09-29T14:00:27.659Z,99507.34
2022-09-29T14:03:29.963Z,99504.59
2022-09-29T14:06:39.151Z,99502.03
2022-09-29T14:13:51.047Z,99499.28
2022-09-29T14:16:37.426Z,99505.78
2022-09-29T14:19:17.635Z,99495.75
2022-09-29T14:21:51.738Z,99504.41
2022-09-29T14:24:47.333Z,99504.69
2022-09-29T14:27:31.834Z,99505.31
2022-09-29T14:30:19.920Z,99502.06
2022-09-29T14:32:56.770Z,99501.81
2022-09-29T14:35:31.706Z,99507.50
2022-09-29T14:38:07.954Z,99508.00
2022-09-29T14:40:36.807Z,99506.81
2022-09-29T14:43:16.416Z,99502.31
2022-09-29T14:46:24.125Z,99515.00
2022-09-29T14:49:43.480Z,99509.59
2022-09-29T14:57:00.569Z,99523.78
2022-09-29T14:59:53.654Z,99518.06
2022-09-29T15:02:28.989Z,99518.25
2022-09-29T15:04:58.806Z,99526.81
2022-09-29T15:07:29.533Z,99528.66
2022-09-29T15:10:00.529Z,99517.50
2022-09-29T15:12:32.558Z,99531.53
2022-09-29T15:15:02.323Z,99524.41
2022-09-29T15:17:54.448Z,99522.78
2022-09-29T15:20:33.094Z,99534.59
2022-09-29T15:23:43.156Z,99530.06
2022-09-29T15:26:15.721Z,99533.28
2022-09-29T15:28:47.068Z,99538.44
2022-09-29T15:31:29.002Z,99539.88
2022-09-29T15:33:59.415Z,99545.25
2022-09-29T15:36:34.745Z,99555.38
2022-09-29T15:39:08.025Z,99560.00
2022-09-29T15:41:37.173Z,99554.44
2022-09-29T15:44:18.533Z,99556.69
2022-09-29T15:46:52.180Z,99568.03
2022-09-29T15:49:23.799Z,99559.88
2022-09-29T15:52:01.571Z,99570.63
2022-09-29T15:54:34.470Z,99572.03
2022-09-29T15:57:21.134Z,99576.59
2022-09-29T15:59:54.173Z,99574.41
2022-09-29T16:02:30.914Z,99572.22
2022-09-29T16:05:07.097Z,99573.31
2022-09-29T16:07:40.658Z,99568.41
2022-09-29T16:10:17.809Z,99578.50
2022-09-29T16:12:54.740Z,99579.88
2022-09-29T16:15:31.438Z,99579.53
2022-09-29T16:18:04.651Z,99593.63
2022-09-29T16:20:36.839Z,99598.72
2022-09-29T16:23:10.696Z,99596.72
2022-09-29T16:25:39.552Z,99598.00
2022-09-29T16:28:26.707Z,99607.09
2022-09-29T16:31:05.579Z,99603.06
2022-09-29T16:33:36.704Z,99617.88
2022-09-29T16:36:20.080Z,99622.19
2022-09-29T16:38:51.573Z,99620.00
2022-09-29T16:41:34.343Z,99617.16
2022-09-29T16:44:09.311Z,99624.09
2022-09-29T16:46:48.156Z,99618.78
2022-09-29T16:53:52.844Z,99636.78
2022-09-29T16:56:32.319Z,99635.13
2022-09-29T16:59:12.439Z,99635.44
2022-09-29T17:01:42.126Z,99644.78
2022-09-29T17:04:13.097Z,99636.66
2022-09-29T17:06:47.360Z,99634.06
2022-09-29T17:09:29.024Z,99633.09
2022-09-29T17:11:59.849Z,99638.34
2022-09-29T17:14:30.913Z,99637.91
2022-09-29T17:16:59.788Z,99644.94
2022-09-29T17:19:28.436Z,99639.06
2022-09-29T17:21:59.381Z,99642.94
2022-09-29T17:24:30.330Z,99641.91
2022-09-29T17:27:16.848Z,99637.72
2022-09-29T17:29:46.127Z,99636.44
2022-09-29T17:32:17.253Z,99632.66
2022-09-29T17:34:45.785Z,99636.00
2022-09-29T17:37:19.480Z,99636.53
2022-09-29T17:39:49.610Z,99642.72
2022-09-29T17:42:18.585Z,99642.69
2022-09-29T17:44:48.140Z,99643.09
2022-09-29T17:47:27.678Z,99647.69
2022-09-29T17:49:57.293Z,99654.91
2022-09-29T17:52:26.013Z,99659.47
2022-09-29T17:54:55.971Z,99664.63
2022-09-29T17:57:32.322Z,99658.84
2022-09-29T18:00:01.266Z,99672.69
2022-09-29T18:02:38.342Z,99670.38
2022-09-29T18:05:07.847Z,99673.63
2022-09-29T18:07:36.434Z,99660.63
2022-09-29T18:10:20.138Z,99671.94
2022-09-29T18:12:48.908Z,99669.41
2022-09-29T18:15:17.770Z,99667.13
2022-09-29T18:17:47.105Z,99664.34
2022-09-29T18:20:19.541Z,99675.53
2022-09-29T18:22:49.200Z,99674.16
2022-09-29T18:29:51.031Z,99683.78
2022-09-29T18:32:20.738Z,99681.56
2022-09-29T18:34:49.270Z,99695.00
2022-09-29T18:37:17.823Z,99693.84
2022-09-29T18:39:46.584Z,99693.06
2022-09-29T18:42:15.598Z,99698.75
2022-09-29T18:44:44.533Z,99697.28
2022-09-29T18:47:14.798Z,99706.03
2022-09-29T18:49:43.589Z,99699.25
2022-09-29T18:52:12.210Z,99708.09
2022-09-29T18:54:40.954Z,99706.53
2022-09-29T18:57:13.953Z,99711.44
2022-09-29T18:59:42.888Z,99722.97
2022-09-29T19:02:15.361Z,99716.03
2022-09-29T19:04:44.179Z,99725.75
2022-09-29T19:07:14.318Z,99725.84
2022-09-29T19:09:43.150Z,99720.03
2022-09-29T19:12:12.330Z,99720.50
2022-09-29T19:14:41.049Z,99727.78
2022-09-29T19:17:09.625Z,99733.69
2022-09-29T19:19:39.695Z,99738.91
2022-09-29T19:22:12.474Z,99737.53
2022-09-29T19:24:41.242Z,99736.66
2022-09-29T19:27:09.843Z,99731.78
2022-09-29T19:29:38.577Z,99737.03
2022-09-29T19:32:07.370Z,99734.03
2022-09-29T19:34:36.134Z,99740.09
2022-09-29T19:37:06.935Z,99731.50
2022-09-29T19:39:35.858Z,99729.31
2022-09-29T19:42:04.576Z,99731.63
2022-09-29T19:44:37.238Z,99740.44
2022-09-29T19:47:06.249Z,99744.75
2022-09-29T19:49:35.357Z,99738.13
2022-09-29T19:52:04.824Z,99750.09
2022-09-29T19:54:38.106Z,99747.13
2022-09-29T19:57:12.158Z,99755.72
2022-09-29T19:59:43.977Z,99750.56
2022-09-29T20:02:15.451Z,99750.56
2022-09-29T20:04:44.822Z,99747.31
2022-09-29T20:07:14.778Z,99748.44
2022-09-29T20:14:16.553Z,99749.91
2022-09-29T20:16:46.808Z,99752.91
2022-09-29T20:19:18.771Z,99745.00
2022-09-29T20:21:51.351Z,99739.56
2022-09-29T20:24:25.435Z,99743.91
2022-09-29T20:26:57.682Z,99746.56
2022-09-29T20:29:27.608Z,99747.69
2022-09-29T20:31:56.218Z,99754.56
2022-09-29T20:34:24.962Z,99754.00
2022-09-29T20:36:54.986Z,99769.75
2022-09-29T20:39:26.154Z,99772.31
2022-09-29T20:41:58.178Z,99768.63
2022-09-29T20:44:27.260Z,99765.09
2022-09-29T20:46:57.184Z,99771.25
2022-09-29T20:49:27.309Z,99770.66
2022-09-29T20:51:59.284Z,99723.94
2022-09-29T20:54:29.667Z,99773.38
2022-09-29T20:56:58.281Z,99773.06
2022-09-29T20:59:26.895Z,99779.88
2022-09-29T21:01:57.217Z,99786.66
2022-09-29T21:04:26.993Z,99788.44
2022-09-29T21:06:55.585Z,99774.19
2022-09-29T21:09:26.492Z,99783.81
2022-09-29T21:11:57.080Z,99787.47
2022-09-29T21:14:27.917Z,99782.91
2022-09-29T21:16:58.286Z,99780.66
2022-09-29T21:19:27.218Z,99789.66
2022-09-29T21:21:56.910Z,99788.41
2022-09-29T21:24:26.047Z,99784.44
2022-09-29T21:26:56.534Z,99784.06
2022-09-29T21:29:25.042Z,99797.53
2022-09-29T21:31:53.581Z,99798.72
2022-09-29T21:34:22.525Z,99800.22
2022-09-29T21:36:51.244Z,99810.56
2022-09-29T21:39:20.083Z,99810.50
2022-09-29T21:41:49.136Z,99817.28
2022-09-29T21:44:24.300Z,99816.69
2022-09-29T21:46:53.469Z,99821.91
2022-09-29T21:49:22.335Z,99817.00
2022-09-29T21:51:52.106Z,99825.88
2022-09-29T21:54:23.318Z,99828.81
2022-09-29T21:56:53.372Z,99831.50
2022-09-29T21:59:24.291Z,99832.50
2022-09-29T22:01:53.381Z,99831.91
2022-09-29T22:04:23.150Z,99848.44
2022-09-29T22:06:52.167Z,99849.09
2022-09-29T22:09:22.899Z,99851.50
2022-09-29T22:11:51.927Z,99855.72
2022-09-29T22:14:24.494Z,99849.38
2022-09-29T22:16:53.566Z,99846.81
2022-09-29T22:19:23.739Z,99848.81
2022-09-29T22:21:54.159Z,99856.28
2022-09-29T22:24:26.657Z,99864.31
2022-09-29T22:26:55.918Z,99867.66
2022-09-29T22:29:27.235Z,99872.78
2022-09-29T22:31:55.995Z,99881.69
2022-09-29T22:34:24.665Z,99884.63
2022-09-29T22:36:53.439Z,99879.81
2022-09-29T22:39:22.323Z,99877.81
2022-09-29T22:41:52.626Z,99878.81
2022-09-29T22:44:21.600Z,99889.56
2022-09-29T22:46:51.695Z,99898.22
2022-09-29T22:49:21.827Z,99892.16
2022-09-29T22:51:50.622Z,99888.66
2022-09-29T22:54:19.131Z,99886.78
2022-09-29T22:56:48.079Z,99894.53
2022-09-29T22:59:17.143Z,99895.38
2022-09-29T23:01:47.280Z,99906.81
2022-09-29T23:04:17.287Z,99901.59
2022-09-29T23:06:46.890Z,99890.56
2022-09-29T23:09:16.062Z,99904.22
2022-09-29T23:11:44.711Z,99901.50
2022-09-29T23:14:15.168Z,99905.78
2022-09-29T23:16:44.116Z,99910.94
2022-09-29T23:19:12.919Z,99912.69
2022-09-29T23:21:43.841Z,99907.41
2022-09-29T23:24:13.059Z,99909.91
2022-09-29T23:26:41.825Z,99907.41
2022-09-29T23:29:11.975Z,99901.50
2022-09-29T23:31:40.788Z,99900.66
2022-09-29T23:34:13.742Z,99904.34
2022-09-29T23:36:43.939Z,99897.22
2022-09-29T23:39:13.982Z,99883.59
2022-09-29T23:41:46.551Z,99886.94
2022-09-29T23:44:19.342Z,99893.25
2022-09-29T23:46:48.190Z,99889.97
2022-09-29T23:49:20.349Z,99903.97
2022-09-29T23:51:53.648Z,99909.28
2022-09-29T23:54:24.970Z,99901.41
2022-09-29T23:56:56.318Z,99909.19
2022-09-29T23:59:25.744Z,99903.19
